sensor_id;sensor_type;location;lat;lon;timestamp;P1;durP1;ratioP1;P2;durP2;ratioP2
64282;SDS011;50497;50.720;-2.084;2023-03-01T00:00:39;15.10;;;7.00;;
64282;SDS011;50497;50.720;-2.084;2023-03-01T00:03:05;14.95;;;7.00;;
64282;SDS011;50497;50.720;-2.084;2023-03-01T00:05:31;14.40;;;6.53;;
64282;SDS011;50497;50.720;-2.084;2023-03-01T00:07:59;22.10;;;12.82;;
64282;SDS011;50497;50.720;-2.084;2023-03-01T00:10:25;15.43;;;7.18;;
64282;SDS011;50497;50.720;-2.084;2023-03-01T00:12:51;17.67;;;7.68;;
64282;SDS011;50497;50.720;-2.084;2023-03-01T00:15:21;16.55;;;7.45;;
64282;SDS011;50497;50.720;-2.084;2023-03-01T00:17:47;18.10;;;10.00;;
64282;SDS011;50497;50.720;-2.084;2023-03-01T00:20:12;25.23;;;13.15;;
64282;SDS011;50497;50.720;-2.084;2023-03-01T00:22:38;21.65;;;10.00;;
64282;SDS011;50497;50.720;-2.084;2023-03-01T00:25:07;25.98;;;15.80;;
64282;SDS011;50497;50.720;-2.084;2023-03-01T00:27:39;16.98;;;7.80;;
64282;SDS011;50497;50.720;-2.084;2023-03-01T00:30:05;15.80;;;7.05;;
64282;SDS011;50497;50.720;-2.084;2023-03-01T00:32:31;13.60;;;6.63;;
64282;SDS011;50497;50.720;-2.084;2023-03-01T00:34:57;12.63;;;6.30;;
64282;SDS011;50497;50.720;-2.084;2023-03-01T00:37:23;12.52;;;5.97;;
64282;SDS011;50497;50.720;-2.084;2023-03-01T00:39:49;13.65;;;6.22;;
64282;SDS011;50497;50.720;-2.084;2023-03-01T00:42:15;13.10;;;6.20;;
64282;SDS011;50497;50.720;-2.084;2023-03-01T00:44:44;14.98;;;7.72;;
64282;SDS011;50497;50.720;-2.084;2023-03-01T00:47:10;13.05;;;6.20;;
64282;SDS011;50497;50.720;-2.084;2023-03-01T00:49:35;11.35;;;5.72;;
64282;SDS011;50497;50.720;-2.084;2023-03-01T00:52:01;12.85;;;6.22;;
64282;SDS011;50497;50.720;-2.084;2023-03-01T00:54:30;11.02;;;5.38;;
64282;SDS011;50497;50.720;-2.084;2023-03-01T00:56:56;11.93;;;5.55;;
64282;SDS011;50497;50.720;-2.084;2023-03-01T00:59:24;11.95;;;5.65;;
64282;SDS011;50497;50.720;-2.084;2023-03-01T01:01:54;13.00;;;6.22;;
64282;SDS011;50497;50.720;-2.084;2023-03-01T01:04:24;11.20;;;6.07;;
64282;SDS011;50497;50.720;-2.084;2023-03-01T01:06:49;12.10;;;5.53;;
64282;SDS011;50497;50.720;-2.084;2023-03-01T01:09:16;12.10;;;5.85;;
64282;SDS011;50497;50.720;-2.084;2023-03-01T01:11:42;11.27;;;5.18;;
64282;SDS011;50497;50.720;-2.084;2023-03-01T01:14:17;11.70;;;6.25;;
64282;SDS011;50497;50.720;-2.084;2023-03-01T01:16:44;12.85;;;5.13;;
64282;SDS011;50497;50.720;-2.084;2023-03-01T01:19:10;11.48;;;5.78;;
64282;SDS011;50497;50.720;-2.084;2023-03-01T01:21:40;11.02;;;5.13;;
64282;SDS011;50497;50.720;-2.084;2023-03-01T01:24:08;8.93;;;4.18;;
64282;SDS011;50497;50.720;-2.084;2023-03-01T01:26:34;12.57;;;5.57;;
64282;SDS011;50497;50.720;-2.084;2023-03-01T01:29:00;11.60;;;5.25;;
64282;SDS011;50497;50.720;-2.084;2023-03-01T01:31:30;10.95;;;4.82;;
64282;SDS011;50497;50.720;-2.084;2023-03-01T01:33:59;11.38;;;5.53;;
64282;SDS011;50497;50.720;-2.084;2023-03-01T01:36:26;14.70;;;6.57;;
64282;SDS011;50497;50.720;-2.084;2023-03-01T01:38:52;12.02;;;5.53;;
64282;SDS011;50497;50.720;-2.084;2023-03-01T01:41:18;13.30;;;6.45;;
64282;SDS011;50497;50.720;-2.084;2023-03-01T01:43:48;13.32;;;4.38;;
64282;SDS011;50497;50.720;-2.084;2023-03-01T01:46:38;12.80;;;6.28;;
64282;SDS011;50497;50.720;-2.084;2023-03-01T01:49:29;13.35;;;6.20;;
64282;SDS011;50497;50.720;-2.084;2023-03-01T01:57:37;10.75;;;3.75;;
64282;SDS011;50497;50.720;-2.084;2023-03-01T02:00:14;12.45;;;5.63;;
64282;SDS011;50497;50.720;-2.084;2023-03-01T02:02:48;11.73;;;5.60;;
64282;SDS011;50497;50.720;-2.084;2023-03-01T02:08:01;11.93;;;5.15;;
64282;SDS011;50497;50.720;-2.084;2023-03-01T02:10:33;12.00;;;5.35;;
64282;SDS011;50497;50.720;-2.084;2023-03-01T02:13:00;11.80;;;6.00;;
64282;SDS011;50497;50.720;-2.084;2023-03-01T02:15:31;12.55;;;6.20;;
64282;SDS011;50497;50.720;-2.084;2023-03-01T02:17:58;13.90;;;5.70;;
64282;SDS011;50497;50.720;-2.084;2023-03-01T02:20:31;13.90;;;6.53;;
64282;SDS011;50497;50.720;-2.084;2023-03-01T02:23:28;12.13;;;5.63;;
64282;SDS011;50497;50.720;-2.084;2023-03-01T02:26:06;12.65;;;5.88;;
64282;SDS011;50497;50.720;-2.084;2023-03-01T02:28:44;13.80;;;6.50;;
64282;SDS011;50497;50.720;-2.084;2023-03-01T02:31:10;13.20;;;6.38;;
64282;SDS011;50497;50.720;-2.084;2023-03-01T02:33:59;12.65;;;6.40;;
64282;SDS011;50497;50.720;-2.084;2023-03-01T02:36:35;13.07;;;6.30;;
64282;SDS011;50497;50.720;-2.084;2023-03-01T02:41:31;14.57;;;6.03;;
64282;SDS011;50497;50.720;-2.084;2023-03-01T02:44:01;13.23;;;6.25;;
64282;SDS011;50497;50.720;-2.084;2023-03-01T02:48:57;12.27;;;5.10;;
64282;SDS011;50497;50.720;-2.084;2023-03-01T02:56:59;14.93;;;7.13;;
64282;SDS011;50497;50.720;-2.084;2023-03-01T02:59:28;13.88;;;6.28;;
64282;SDS011;50497;50.720;-2.084;2023-03-01T03:01:56;15.82;;;7.53;;
64282;SDS011;50497;50.720;-2.084;2023-03-01T03:04:22;14.30;;;7.22;;
64282;SDS011;50497;50.720;-2.084;2023-03-01T03:06:48;14.60;;;6.53;;
64282;SDS011;50497;50.720;-2.084;2023-03-01T03:09:15;16.33;;;7.90;;
64282;SDS011;50497;50.720;-2.084;2023-03-01T03:14:09;14.98;;;6.63;;
64282;SDS011;50497;50.720;-2.084;2023-03-01T03:16:43;16.00;;;7.60;;
64282;SDS011;50497;50.720;-2.084;2023-03-01T03:19:16;16.00;;;7.97;;
64282;SDS011;50497;50.720;-2.084;2023-03-01T03:21:50;17.00;;;7.80;;
64282;SDS011;50497;50.720;-2.084;2023-03-01T03:24:24;15.55;;;7.53;;
64282;SDS011;50497;50.720;-2.084;2023-03-01T03:26:50;15.18;;;7.10;;
64282;SDS011;50497;50.720;-2.084;2023-03-01T03:29:15;15.38;;;7.25;;
64282;SDS011;50497;50.720;-2.084;2023-03-01T03:31:42;17.10;;;8.30;;
64282;SDS011;50497;50.720;-2.084;2023-03-01T03:34:11;17.42;;;8.32;;
64282;SDS011;50497;50.720;-2.084;2023-03-01T03:36:43;16.88;;;8.10;;
64282;SDS011;50497;50.720;-2.084;2023-03-01T03:39:11;16.08;;;7.72;;
64282;SDS011;50497;50.720;-2.084;2023-03-01T03:41:37;17.95;;;8.18;;
64282;SDS011;50497;50.720;-2.084;2023-03-01T03:44:03;17.75;;;8.35;;
64282;SDS011;50497;50.720;-2.084;2023-03-01T03:46:32;15.32;;;7.63;;
64282;SDS011;50497;50.720;-2.084;2023-03-01T03:48:58;17.08;;;8.25;;
64282;SDS011;50497;50.720;-2.084;2023-03-01T03:51:23;18.73;;;7.70;;
64282;SDS011;50497;50.720;-2.084;2023-03-01T03:53:49;16.70;;;7.43;;
64282;SDS011;50497;50.720;-2.084;2023-03-01T03:56:14;15.57;;;8.20;;
64282;SDS011;50497;50.720;-2.084;2023-03-01T03:58:40;18.08;;;8.68;;
64282;SDS011;50497;50.720;-2.084;2023-03-01T04:01:06;15.38;;;7.30;;
64282;SDS011;50497;50.720;-2.084;2023-03-01T04:03:31;17.38;;;8.00;;
64282;SDS011;50497;50.720;-2.084;2023-03-01T04:05:58;16.83;;;7.60;;
64282;SDS011;50497;50.720;-2.084;2023-03-01T04:10:51;14.00;;;6.25;;
64282;SDS011;50497;50.720;-2.084;2023-03-01T04:13:23;16.98;;;7.97;;
64282;SDS011;50497;50.720;-2.084;2023-03-01T04:15:52;16.63;;;7.93;;
64282;SDS011;50497;50.720;-2.084;2023-03-01T04:18:19;16.33;;;7.78;;
64282;SDS011;50497;50.720;-2.084;2023-03-01T04:20:47;17.15;;;8.13;;
64282;SDS011;50497;50.720;-2.084;2023-03-01T04:23:14;17.23;;;8.07;;
64282;SDS011;50497;50.720;-2.084;2023-03-01T04:28:23;17.92;;;8.02;;
64282;SDS011;50497;50.720;-2.084;2023-03-01T04:30:50;25.85;;;8.13;;
64282;SDS011;50497;50.720;-2.084;2023-03-01T04:33:16;20.33;;;8.30;;
64282;SDS011;50497;50.720;-2.084;2023-03-01T04:38:12;18.17;;;7.97;;
64282;SDS011;50497;50.720;-2.084;2023-03-01T04:40:40;17.15;;;7.60;;
64282;SDS011;50497;50.720;-2.084;2023-03-01T04:43:08;18.73;;;7.93;;
64282;SDS011;50497;50.720;-2.084;2023-03-01T04:45:36;18.02;;;8.00;;
64282;SDS011;50497;50.720;-2.084;2023-03-01T04:48:02;16.98;;;7.97;;
64282;SDS011;50497;50.720;-2.084;2023-03-01T04:50:29;16.77;;;7.32;;
64282;SDS011;50497;50.720;-2.084;2023-03-01T04:52:58;16.70;;;8.10;;
64282;SDS011;50497;50.720;-2.084;2023-03-01T04:55:28;18.25;;;7.90;;
64282;SDS011;50497;50.720;-2.084;2023-03-01T04:57:54;15.50;;;6.90;;
64282;SDS011;50497;50.720;-2.084;2023-03-01T05:00:21;19.20;;;7.93;;
64282;SDS011;50497;50.720;-2.084;2023-03-01T05:05:13;20.05;;;8.00;;
64282;SDS011;50497;50.720;-2.084;2023-03-01T05:07:43;17.15;;;7.18;;
64282;SDS011;50497;50.720;-2.084;2023-03-01T05:10:09;20.55;;;8.23;;
64282;SDS011;50497;50.720;-2.084;2023-03-01T05:12:38;17.35;;;7.57;;
64282;SDS011;50497;50.720;-2.084;2023-03-01T05:15:07;15.98;;;7.43;;
64282;SDS011;50497;50.720;-2.084;2023-03-01T05:17:33;16.60;;;7.32;;
64282;SDS011;50497;50.720;-2.084;2023-03-01T05:19:59;17.88;;;8.15;;
64282;SDS011;50497;50.720;-2.084;2023-03-01T05:22:26;20.00;;;7.90;;
64282;SDS011;50497;50.720;-2.084;2023-03-01T05:24:52;17.33;;;7.85;;
64282;SDS011;50497;50.720;-2.084;2023-03-01T05:27:19;16.98;;;7.15;;
64282;SDS011;50497;50.720;-2.084;2023-03-01T05:29:47;18.40;;;8.10;;
64282;SDS011;50497;50.720;-2.084;2023-03-01T05:32:20;18.15;;;7.55;;
64282;SDS011;50497;50.720;-2.084;2023-03-01T05:34:52;18.60;;;8.15;;
64282;SDS011;50497;50.720;-2.084;2023-03-01T05:37:23;17.42;;;7.90;;
64282;SDS011;50497;50.720;-2.084;2023-03-01T05:39:57;18.88;;;8.48;;
64282;SDS011;50497;50.720;-2.084;2023-03-01T05:42:25;15.05;;;7.20;;
64282;SDS011;50497;50.720;-2.084;2023-03-01T05:44:54;17.25;;;7.43;;
64282;SDS011;50497;50.720;-2.084;2023-03-01T05:47:25;16.92;;;7.90;;
64282;SDS011;50497;50.720;-2.084;2023-03-01T05:49:52;18.25;;;7.70;;
64282;SDS011;50497;50.720;-2.084;2023-03-01T05:52:25;17.40;;;8.27;;
64282;SDS011;50497;50.720;-2.084;2023-03-01T05:54:51;16.63;;;7.80;;
64282;SDS011;50497;50.720;-2.084;2023-03-01T05:57:28;15.73;;;7.50;;
64282;SDS011;50497;50.720;-2.084;2023-03-01T05:59:57;21.08;;;7.60;;
64282;SDS011;50497;50.720;-2.084;2023-03-01T06:02:22;17.30;;;7.85;;
64282;SDS011;50497;50.720;-2.084;2023-03-01T06:04:53;21.55;;;7.72;;
64282;SDS011;50497;50.720;-2.084;2023-03-01T06:07:19;20.95;;;8.10;;
64282;SDS011;50497;50.720;-2.084;2023-03-01T06:09:50;19.13;;;7.72;;
64282;SDS011;50497;50.720;-2.084;2023-03-01T06:12:17;16.27;;;7.82;;
64282;SDS011;50497;50.720;-2.084;2023-03-01T06:14:46;20.13;;;7.57;;
64282;SDS011;50497;50.720;-2.084;2023-03-01T06:17:18;23.10;;;8.35;;
64282;SDS011;50497;50.720;-2.084;2023-03-01T06:19:46;17.85;;;7.97;;
64282;SDS011;50497;50.720;-2.084;2023-03-01T06:22:12;15.85;;;7.15;;
64282;SDS011;50497;50.720;-2.084;2023-03-01T06:24:38;19.42;;;7.78;;
64282;SDS011;50497;50.720;-2.084;2023-03-01T06:27:09;22.48;;;8.70;;
64282;SDS011;50497;50.720;-2.084;2023-03-01T06:29:37;19.17;;;8.40;;
64282;SDS011;50497;50.720;-2.084;2023-03-01T06:32:10;16.40;;;7.43;;
64282;SDS011;50497;50.720;-2.084;2023-03-01T06:34:39;18.40;;;7.70;;
64282;SDS011;50497;50.720;-2.084;2023-03-01T06:37:06;20.33;;;8.07;;
64282;SDS011;50497;50.720;-2.084;2023-03-01T06:39:38;18.10;;;7.50;;
64282;SDS011;50497;50.720;-2.084;2023-03-01T06:42:04;18.08;;;7.60;;
64282;SDS011;50497;50.720;-2.084;2023-03-01T06:44:30;17.10;;;7.25;;
64282;SDS011;50497;50.720;-2.084;2023-03-01T06:46:58;19.67;;;7.40;;
64282;SDS011;50497;50.720;-2.084;2023-03-01T06:49:30;16.58;;;6.90;;
64282;SDS011;50497;50.720;-2.084;2023-03-01T06:51:56;17.02;;;7.03;;
64282;SDS011;50497;50.720;-2.084;2023-03-01T06:54:22;15.10;;;6.72;;
64282;SDS011;50497;50.720;-2.084;2023-03-01T06:56:58;12.55;;;5.30;;
64282;SDS011;50497;50.720;-2.084;2023-03-01T06:59:26;13.23;;;5.97;;
64282;SDS011;50497;50.720;-2.084;2023-03-01T07:01:55;12.82;;;5.25;;
64282;SDS011;50497;50.720;-2.084;2023-03-01T07:04:28;11.38;;;4.15;;
64282;SDS011;50497;50.720;-2.084;2023-03-01T07:07:01;12.20;;;4.18;;
64282;SDS011;50497;50.720;-2.084;2023-03-01T07:09:27;10.70;;;4.90;;
64282;SDS011;50497;50.720;-2.084;2023-03-01T07:11:58;10.75;;;4.05;;
64282;SDS011;50497;50.720;-2.084;2023-03-01T07:14:27;8.32;;;3.50;;
64282;SDS011;50497;50.720;-2.084;2023-03-01T07:16:58;9.05;;;3.95;;
64282;SDS011;50497;50.720;-2.084;2023-03-01T07:19:26;9.98;;;4.07;;
64282;SDS011;50497;50.720;-2.084;2023-03-01T07:21:56;10.60;;;3.83;;
64282;SDS011;50497;50.720;-2.084;2023-03-01T07:26:59;9.65;;;3.67;;
64282;SDS011;50497;50.720;-2.084;2023-03-01T07:29:32;7.88;;;3.30;;
64282;SDS011;50497;50.720;-2.084;2023-03-01T07:32:02;6.45;;;2.35;;
64282;SDS011;50497;50.720;-2.084;2023-03-01T07:34:32;7.53;;;3.08;;
64282;SDS011;50497;50.720;-2.084;2023-03-01T07:37:00;6.80;;;2.75;;
64282;SDS011;50497;50.720;-2.084;2023-03-01T07:39:29;9.48;;;3.05;;
64282;SDS011;50497;50.720;-2.084;2023-03-01T07:41:59;7.60;;;2.83;;
64282;SDS011;50497;50.720;-2.084;2023-03-01T07:44:24;5.78;;;2.70;;
64282;SDS011;50497;50.720;-2.084;2023-03-01T07:49:21;5.50;;;2.40;;
64282;SDS011;50497;50.720;-2.084;2023-03-01T07:51:48;7.60;;;2.80;;
64282;SDS011;50497;50.720;-2.084;2023-03-01T07:54:19;7.90;;;2.65;;
64282;SDS011;50497;50.720;-2.084;2023-03-01T07:56:45;6.10;;;2.20;;
64282;SDS011;50497;50.720;-2.084;2023-03-01T07:59:13;5.70;;;2.33;;
64282;SDS011;50497;50.720;-2.084;2023-03-01T08:01:39;6.35;;;2.63;;
64282;SDS011;50497;50.720;-2.084;2023-03-01T08:04:08;6.68;;;2.55;;
64282;SDS011;50497;50.720;-2.084;2023-03-01T08:06:34;5.95;;;2.10;;
64282;SDS011;50497;50.720;-2.084;2023-03-01T08:09:11;6.05;;;2.67;;
64282;SDS011;50497;50.720;-2.084;2023-03-01T08:11:37;6.90;;;2.83;;
64282;SDS011;50497;50.720;-2.084;2023-03-01T08:14:02;7.05;;;2.65;;
64282;SDS011;50497;50.720;-2.084;2023-03-01T08:16:29;6.90;;;2.70;;
64282;SDS011;50497;50.720;-2.084;2023-03-01T08:18:55;5.90;;;2.45;;
64282;SDS011;50497;50.720;-2.084;2023-03-01T08:21:24;6.60;;;2.33;;
64282;SDS011;50497;50.720;-2.084;2023-03-01T08:23:53;6.97;;;2.53;;
64282;SDS011;50497;50.720;-2.084;2023-03-01T08:26:23;6.60;;;2.80;;
64282;SDS011;50497;50.720;-2.084;2023-03-01T08:28:54;7.03;;;2.38;;
64282;SDS011;50497;50.720;-2.084;2023-03-01T08:31:23;6.32;;;2.55;;
64282;SDS011;50497;50.720;-2.084;2023-03-01T08:33:56;5.72;;;2.05;;
64282;SDS011;50497;50.720;-2.084;2023-03-01T08:36:35;6.72;;;2.70;;
64282;SDS011;50497;50.720;-2.084;2023-03-01T08:39:08;5.57;;;2.38;;
64282;SDS011;50497;50.720;-2.084;2023-03-01T08:41:39;7.22;;;2.40;;
64282;SDS011;50497;50.720;-2.084;2023-03-01T08:44:12;7.45;;;2.67;;
64282;SDS011;50497;50.720;-2.084;2023-03-01T08:46:46;6.93;;;2.65;;
64282;SDS011;50497;50.720;-2.084;2023-03-01T08:49:15;8.13;;;2.70;;
64282;SDS011;50497;50.720;-2.084;2023-03-01T08:54:13;7.32;;;2.70;;
64282;SDS011;50497;50.720;-2.084;2023-03-01T08:56:50;8.55;;;2.70;;
64282;SDS011;50497;50.720;-2.084;2023-03-01T10:32:32;4.00;;;1.55;;
64282;SDS011;50497;50.720;-2.084;2023-03-01T10:34:57;9.70;;;3.08;;
64282;SDS011;50497;50.720;-2.084;2023-03-01T10:37:23;3.72;;;1.23;;
64282;SDS011;50497;50.720;-2.084;2023-03-01T10:40:09;3.65;;;1.30;;
64282;SDS011;50497;50.720;-2.084;2023-03-01T10:45:14;2.95;;;1.05;;
64282;SDS011;50497;50.720;-2.084;2023-03-01T10:50:42;3.33;;;1.10;;
64282;SDS011;50497;50.720;-2.084;2023-03-01T10:53:32;4.20;;;1.30;;
64282;SDS011;50497;50.720;-2.084;2023-03-01T10:56:03;3.67;;;0.95;;
64282;SDS011;50497;50.720;-2.084;2023-03-01T11:00:59;4.60;;;1.40;;
64282;SDS011;50497;50.720;-2.084;2023-03-01T11:03:26;7.75;;;1.67;;
64282;SDS011;50497;50.720;-2.084;2023-03-01T11:05:59;3.22;;;1.48;;
64282;SDS011;50497;50.720;-2.084;2023-03-01T11:08:40;5.20;;;1.42;;
64282;SDS011;50497;50.720;-2.084;2023-03-01T11:11:49;1.85;;;1.08;;
64282;SDS011;50497;50.720;-2.084;2023-03-01T11:14:03;3.90;;;1.35;;
64282;SDS011;50497;50.720;-2.084;2023-03-01T11:16:38;5.93;;;1.90;;
64282;SDS011;50497;50.720;-2.084;2023-03-01T11:24:27;9.77;;;1.90;;
64282;SDS011;50497;50.720;-2.084;2023-03-01T11:27:02;6.72;;;1.70;;
64282;SDS011;50497;50.720;-2.084;2023-03-01T11:32:47;2.45;;;1.15;;
64282;SDS011;50497;50.720;-2.084;2023-03-01T11:35:25;3.35;;;1.20;;
64282;SDS011;50497;50.720;-2.084;2023-03-01T11:43:00;5.97;;;1.63;;
64282;SDS011;50497;50.720;-2.084;2023-03-01T11:48:31;5.15;;;1.70;;
64282;SDS011;50497;50.720;-2.084;2023-03-01T11:51:20;6.93;;;2.20;;
64282;SDS011;50497;50.720;-2.084;2023-03-01T11:53:54;5.93;;;2.00;;
64282;SDS011;50497;50.720;-2.084;2023-03-01T11:56:47;4.72;;;2.05;;
64282;SDS011;50497;50.720;-2.084;2023-03-01T12:08:40;5.25;;;2.30;;
64282;SDS011;50497;50.720;-2.084;2023-03-01T12:11:22;4.05;;;1.80;;
64282;SDS011;50497;50.720;-2.084;2023-03-01T12:17:04;4.60;;;2.00;;
64282;SDS011;50497;50.720;-2.084;2023-03-01T12:23:20;5.60;;;2.40;;
64282;SDS011;50497;50.720;-2.084;2023-03-01T12:28:20;10.30;;;4.03;;
64282;SDS011;50497;50.720;-2.084;2023-03-01T12:42:18;6.03;;;2.70;;
64282;SDS011;50497;50.720;-2.084;2023-03-01T12:45:06;7.00;;;2.53;;
64282;SDS011;50497;50.720;-2.084;2023-03-01T12:47:58;5.75;;;3.20;;
64282;SDS011;50497;50.720;-2.084;2023-03-01T12:50:55;9.00;;;4.40;;
64282;SDS011;50497;50.720;-2.084;2023-03-01T12:53:27;3.33;;;1.60;;
64282;SDS011;50497;50.720;-2.084;2023-03-01T12:55:58;7.15;;;2.72;;
64282;SDS011;50497;50.720;-2.084;2023-03-01T13:17:59;8.50;;;3.28;;
64282;SDS011;50497;50.720;-2.084;2023-03-01T13:20:44;9.60;;;4.90;;
64282;SDS011;50497;50.720;-2.084;2023-03-01T13:23:13;9.35;;;4.97;;
64282;SDS011;50497;50.720;-2.084;2023-03-01T13:26:00;8.68;;;4.82;;
64282;SDS011;50497;50.720;-2.084;2023-03-01T13:31:04;10.27;;;6.10;;
64282;SDS011;50497;50.720;-2.084;2023-03-01T13:35:58;10.45;;;7.00;;
64282;SDS011;50497;50.720;-2.084;2023-03-01T13:44:15;8.85;;;3.33;;
64282;SDS011;50497;50.720;-2.084;2023-03-01T13:49:55;2.65;;;1.10;;
64282;SDS011;50497;50.720;-2.084;2023-03-01T13:52:34;5.93;;;2.67;;
64282;SDS011;50497;50.720;-2.084;2023-03-01T13:57:45;12.52;;;5.47;;
64282;SDS011;50497;50.720;-2.084;2023-03-01T14:08:40;9.23;;;4.95;;
64282;SDS011;50497;50.720;-2.084;2023-03-01T14:13:51;8.18;;;3.33;;
64282;SDS011;50497;50.720;-2.084;2023-03-01T14:19:24;5.95;;;2.60;;
64282;SDS011;50497;50.720;-2.084;2023-03-01T14:24:47;7.28;;;3.17;;
64282;SDS011;50497;50.720;-2.084;2023-03-01T14:27:17;6.18;;;2.78;;
64282;SDS011;50497;50.720;-2.084;2023-03-01T14:29:58;7.47;;;3.92;;
64282;SDS011;50497;50.720;-2.084;2023-03-01T14:32:27;9.38;;;5.53;;
64282;SDS011;50497;50.720;-2.084;2023-03-01T14:34:59;6.13;;;2.63;;
64282;SDS011;50497;50.720;-2.084;2023-03-01T14:37:27;6.30;;;2.42;;
64282;SDS011;50497;50.720;-2.084;2023-03-01T14:39:59;6.78;;;2.67;;
64282;SDS011;50497;50.720;-2.084;2023-03-01T14:42:30;6.78;;;3.58;;
64282;SDS011;50497;50.720;-2.084;2023-03-01T14:45:00;9.02;;;3.55;;
64282;SDS011;50497;50.720;-2.084;2023-03-01T14:47:28;5.03;;;2.13;;
64282;SDS011;50497;50.720;-2.084;2023-03-01T14:52:40;5.78;;;2.70;;
64282;SDS011;50497;50.720;-2.084;2023-03-01T14:55:28;6.10;;;2.60;;
64282;SDS011;50497;50.720;-2.084;2023-03-01T14:58:09;7.45;;;2.30;;
64282;SDS011;50497;50.720;-2.084;2023-03-01T15:00:38;6.22;;;2.10;;
64282;SDS011;50497;50.720;-2.084;2023-03-01T15:03:11;6.90;;;2.63;;
64282;SDS011;50497;50.720;-2.084;2023-03-01T15:05:43;9.05;;;3.50;;
64282;SDS011;50497;50.720;-2.084;2023-03-01T15:08:20;6.70;;;2.83;;
64282;SDS011;50497;50.720;-2.084;2023-03-01T15:13:44;5.80;;;2.30;;
64282;SDS011;50497;50.720;-2.084;2023-03-01T15:16:12;6.13;;;2.38;;
64282;SDS011;50497;50.720;-2.084;2023-03-01T15:18:49;4.22;;;1.90;;
64282;SDS011;50497;50.720;-2.084;2023-03-01T15:21:29;5.55;;;1.73;;
64282;SDS011;50497;50.720;-2.084;2023-03-01T15:24:01;6.75;;;2.10;;
64282;SDS011;50497;50.720;-2.084;2023-03-01T15:26:37;5.25;;;1.90;;
64282;SDS011;50497;50.720;-2.084;2023-03-01T15:29:10;5.28;;;1.40;;
64282;SDS011;50497;50.720;-2.084;2023-03-01T15:31:43;6.30;;;2.40;;
64282;SDS011;50497;50.720;-2.084;2023-03-01T15:34:22;7.32;;;2.13;;
64282;SDS011;50497;50.720;-2.084;2023-03-01T15:36:48;5.40;;;2.38;;
64282;SDS011;50497;50.720;-2.084;2023-03-01T15:42:03;6.75;;;2.85;;
64282;SDS011;50497;50.720;-2.084;2023-03-01T15:44:39;7.10;;;2.90;;
64282;SDS011;50497;50.720;-2.084;2023-03-01T15:47:23;7.25;;;2.88;;
64282;SDS011;50497;50.720;-2.084;2023-03-01T15:49:52;7.25;;;2.97;;
64282;SDS011;50497;50.720;-2.084;2023-03-01T15:55:00;7.10;;;2.97;;
64282;SDS011;50497;50.720;-2.084;2023-03-01T15:57:28;9.68;;;3.55;;
64282;SDS011;50497;50.720;-2.084;2023-03-01T15:59:54;7.90;;;3.30;;
64282;SDS011;50497;50.720;-2.084;2023-03-01T16:02:20;7.53;;;2.70;;
64282;SDS011;50497;50.720;-2.084;2023-03-01T16:04:51;6.00;;;2.35;;
64282;SDS011;50497;50.720;-2.084;2023-03-01T16:07:18;5.40;;;2.40;;
64282;SDS011;50497;50.720;-2.084;2023-03-01T16:09:44;8.23;;;3.35;;
64282;SDS011;50497;50.720;-2.084;2023-03-01T16:12:13;5.85;;;2.40;;
64282;SDS011;50497;50.720;-2.084;2023-03-01T16:14:46;5.35;;;1.90;;
64282;SDS011;50497;50.720;-2.084;2023-03-01T16:17:13;6.57;;;2.20;;
64282;SDS011;50497;50.720;-2.084;2023-03-01T16:19:38;5.75;;;2.00;;
64282;SDS011;50497;50.720;-2.084;2023-03-01T16:22:04;5.25;;;1.85;;
64282;SDS011;50497;50.720;-2.084;2023-03-01T16:24:30;5.50;;;2.33;;
64282;SDS011;50497;50.720;-2.084;2023-03-01T16:26:55;5.53;;;2.28;;
64282;SDS011;50497;50.720;-2.084;2023-03-01T16:29:21;6.75;;;2.35;;
64282;SDS011;50497;50.720;-2.084;2023-03-01T16:31:47;10.23;;;4.28;;
64282;SDS011;50497;50.720;-2.084;2023-03-01T16:34:13;11.30;;;4.60;;
64282;SDS011;50497;50.720;-2.084;2023-03-01T16:36:43;7.07;;;2.78;;
64282;SDS011;50497;50.720;-2.084;2023-03-01T16:39:12;12.18;;;5.00;;
64282;SDS011;50497;50.720;-2.084;2023-03-01T16:41:42;7.95;;;3.60;;
64282;SDS011;50497;50.720;-2.084;2023-03-01T16:44:08;7.75;;;2.85;;
64282;SDS011;50497;50.720;-2.084;2023-03-01T16:46:33;8.38;;;4.60;;
64282;SDS011;50497;50.720;-2.084;2023-03-01T16:48:59;7.32;;;4.13;;
64282;SDS011;50497;50.720;-2.084;2023-03-01T16:51:24;5.80;;;2.30;;
64282;SDS011;50497;50.720;-2.084;2023-03-01T16:53:50;7.13;;;2.85;;
64282;SDS011;50497;50.720;-2.084;2023-03-01T16:56:16;5.55;;;2.05;;
64282;SDS011;50497;50.720;-2.084;2023-03-01T16:58:43;5.78;;;2.35;;
64282;SDS011;50497;50.720;-2.084;2023-03-01T17:01:17;6.05;;;2.22;;
64282;SDS011;50497;50.720;-2.084;2023-03-01T17:03:44;7.07;;;2.38;;
64282;SDS011;50497;50.720;-2.084;2023-03-01T17:06:13;6.53;;;2.50;;
64282;SDS011;50497;50.720;-2.084;2023-03-01T17:08:40;14.77;;;6.25;;
64282;SDS011;50497;50.720;-2.084;2023-03-01T17:11:10;7.57;;;3.22;;
64282;SDS011;50497;50.720;-2.084;2023-03-01T17:13:44;6.20;;;2.17;;
64282;SDS011;50497;50.720;-2.084;2023-03-01T17:16:12;5.32;;;2.20;;
64282;SDS011;50497;50.720;-2.084;2023-03-01T17:18:42;7.20;;;2.70;;
64282;SDS011;50497;50.720;-2.084;2023-03-01T17:21:08;6.97;;;2.95;;
64282;SDS011;50497;50.720;-2.084;2023-03-01T17:23:35;8.25;;;3.08;;
64282;SDS011;50497;50.720;-2.084;2023-03-01T17:26:08;8.63;;;3.63;;
64282;SDS011;50497;50.720;-2.084;2023-03-01T17:28:34;7.10;;;2.95;;
64282;SDS011;50497;50.720;-2.084;2023-03-01T17:31:02;7.38;;;2.80;;
64282;SDS011;50497;50.720;-2.084;2023-03-01T17:33:29;17.52;;;9.10;;
64282;SDS011;50497;50.720;-2.084;2023-03-01T17:35:55;6.97;;;3.40;;
64282;SDS011;50497;50.720;-2.084;2023-03-01T17:38:21;9.80;;;4.05;;
64282;SDS011;50497;50.720;-2.084;2023-03-01T17:40:47;41.58;;;19.45;;
64282;SDS011;50497;50.720;-2.084;2023-03-01T17:43:13;7.03;;;3.15;;
64282;SDS011;50497;50.720;-2.084;2023-03-01T17:45:40;12.93;;;6.22;;
64282;SDS011;50497;50.720;-2.084;2023-03-01T17:48:08;9.25;;;5.13;;
64282;SDS011;50497;50.720;-2.084;2023-03-01T17:50:36;10.40;;;5.15;;
64282;SDS011;50497;50.720;-2.084;2023-03-01T17:53:06;6.88;;;3.20;;
64282;SDS011;50497;50.720;-2.084;2023-03-01T17:55:35;10.05;;;5.50;;
64282;SDS011;50497;50.720;-2.084;2023-03-01T17:58:05;7.45;;;3.58;;
64282;SDS011;50497;50.720;-2.084;2023-03-01T18:00:35;7.25;;;2.97;;
64282;SDS011;50497;50.720;-2.084;2023-03-01T18:03:01;7.28;;;3.13;;
64282;SDS011;50497;50.720;-2.084;2023-03-01T18:05:32;16.33;;;8.40;;
64282;SDS011;50497;50.720;-2.084;2023-03-01T18:07:59;7.00;;;2.90;;
64282;SDS011;50497;50.720;-2.084;2023-03-01T18:10:29;19.80;;;11.93;;
64282;SDS011;50497;50.720;-2.084;2023-03-01T18:12:55;7.57;;;4.20;;
64282;SDS011;50497;50.720;-2.084;2023-03-01T18:15:25;6.60;;;2.95;;
64282;SDS011;50497;50.720;-2.084;2023-03-01T18:17:51;11.00;;;4.43;;
64282;SDS011;50497;50.720;-2.084;2023-03-01T18:20:19;8.90;;;3.83;;
64282;SDS011;50497;50.720;-2.084;2023-03-01T18:22:44;7.78;;;3.40;;
64282;SDS011;50497;50.720;-2.084;2023-03-01T18:25:10;8.50;;;3.85;;
64282;SDS011;50497;50.720;-2.084;2023-03-01T18:27:36;9.23;;;3.85;;
64282;SDS011;50497;50.720;-2.084;2023-03-01T18:30:02;9.80;;;4.35;;
64282;SDS011;50497;50.720;-2.084;2023-03-01T18:32:29;5.40;;;2.30;;
64282;SDS011;50497;50.720;-2.084;2023-03-01T18:34:55;11.13;;;4.68;;
64282;SDS011;50497;50.720;-2.084;2023-03-01T18:37:20;5.88;;;2.60;;
64282;SDS011;50497;50.720;-2.084;2023-03-01T18:39:51;8.73;;;3.15;;
64282;SDS011;50497;50.720;-2.084;2023-03-01T18:42:19;6.30;;;2.80;;
64282;SDS011;50497;50.720;-2.084;2023-03-01T18:44:46;6.75;;;3.15;;
64282;SDS011;50497;50.720;-2.084;2023-03-01T18:47:12;5.70;;;2.60;;
64282;SDS011;50497;50.720;-2.084;2023-03-01T18:49:37;12.10;;;5.10;;
64282;SDS011;50497;50.720;-2.084;2023-03-01T18:52:03;6.45;;;2.42;;
64282;SDS011;50497;50.720;-2.084;2023-03-01T18:54:29;5.90;;;2.70;;